Time;durP1;ratioP1;P1;durP2;ratioP2;P2;SDS_P1;SDS_P2;PMS_P1;PMS_P2;Temp;Humidity;BMP_temperature;BMP_pressure;BME280_temperature;BME280_humidity;BME280_pressure;Samples;Min_cycle;Max_cycle;Signal;HPM_P1;HPM_P2
2020/12/17 00:01:12;;;;;;;5.87;3.90;;;;;;;-142.13;100.00;58370.81;4976531;28;20453;-72
2020/12/17 00:03:39;;;;;;;5.53;3.70;;;;;;;-142.13;100.00;58370.81;4976447;28;20953;-75
2020/12/17 00:06:07;;;;;;;6.70;3.60;;;;;;;-142.13;100.00;58370.81;4977404;28;20567;-73
2020/12/17 00:08:33;;;;;;;7.10;3.80;;;;;;;-142.13;100.00;58370.81;4976780;28;21032;-73
2020/12/17 00:11:00;;;;;;;6.23;3.67;;;;;;;-142.13;100.00;58370.81;4976911;28;21181;-72
2020/12/17 00:13:28;;;;;;;6.27;4.00;;;;;;;-142.13;100.00;58370.81;4973038;28;20990;-73
2020/12/17 00:15:55;;;;;;;4.23;3.13;;;;;;;-142.13;100.00;58370.81;4976916;28;20508;-73
2020/12/17 00:18:22;;;;;;;7.50;3.60;;;;;;;-142.13;100.00;58370.81;4976023;28;20551;-72
2020/12/17 00:20:49;;;;;;;7.77;4.00;;;;;;;-142.13;100.00;58370.81;4975885;28;20925;-74
2020/12/17 00:23:17;;;;;;;4.27;2.47;;;;;;;-142.13;100.00;58370.81;4976634;28;20838;-73
2020/12/17 00:25:44;;;;;;;5.37;3.10;;;;;;;-142.13;100.00;58370.81;4975090;28;20484;-72
2020/12/17 00:28:11;;;;;;;4.93;3.07;;;;;;;-142.13;100.00;58370.81;4979243;28;21148;-72
2020/12/17 00:30:37;;;;;;;7.23;3.10;;;;;;;-142.13;100.00;58370.81;4976691;28;20539;-74
2020/12/17 00:33:04;;;;;;;6.10;3.43;;;;;;;-142.13;100.00;58370.81;4976340;28;20772;-73
2020/12/17 00:35:31;;;;;;;6.00;3.37;;;;;;;-142.13;100.00;58370.81;4976338;28;20966;-73
2020/12/17 00:37:58;;;;;;;3.93;2.60;;;;;;;-142.13;100.00;58370.81;4975366;28;20922;-72
2020/12/17 00:40:25;;;;;;;3.67;2.60;;;;;;;-142.13;100.00;58370.81;4976399;28;21074;-73
2020/12/17 00:42:52;;;;;;;3.47;2.40;;;;;;;-142.13;100.00;58370.81;4974587;28;20975;-74
2020/12/17 00:45:19;;;;;;;3.00;2.27;;;;;;;-142.13;100.00;58370.81;4975612;28;20850;-73
2020/12/17 00:47:45;;;;;;;3.77;2.33;;;;;;;-142.13;100.00;58370.81;4976106;28;20544;-70
2020/12/17 00:50:12;;;;;;;6.70;3.00;;;;;;;-142.13;100.00;58370.81;4975451;28;20586;-70
2020/12/17 00:52:40;;;;;;;9.93;3.13;;;;;;;-142.13;100.00;58370.81;4977165;28;20481;-69
2020/12/17 00:55:07;;;;;;;4.20;2.90;;;;;;;-142.13;100.00;58370.81;4972687;28;20965;-69
2020/12/17 00:57:35;;;;;;;4.67;3.03;;;;;;;-142.13;100.00;58370.81;4975716;28;20448;-69
2020/12/17 01:00:04;;;;;;;4.97;2.80;;;;;;;-142.13;100.00;58370.81;4975536;28;20958;-72
2020/12/17 01:02:31;;;;;;;3.10;2.10;;;;;;;-142.13;100.00;58370.81;4975755;28;20488;-69
2020/12/17 01:04:58;;;;;;;3.10;2.80;;;;;;;-142.13;100.00;58370.81;4975451;28;20559;-71
2020/12/17 01:07:24;;;;;;;5.90;2.90;;;;;;;-142.13;100.00;58370.81;4976712;28;20836;-70
2020/12/17 01:09:51;;;;;;;4.57;2.37;;;;;;;-142.13;100.00;58370.81;4975674;28;20508;-71
2020/12/17 01:12:18;;;;;;;4.23;3.47;;;;;;;-142.13;100.00;58370.81;4975516;28;20854;-71
2020/12/17 01:14:46;;;;;;;3.80;2.57;;;;;;;-142.13;100.00;58370.81;4975647;28;20487;-73
2020/12/17 01:17:15;;;;;;;3.07;2.50;;;;;;;-142.13;100.00;58370.81;4976113;28;20515;-70
2020/12/17 01:19:42;;;;;;;4.67;2.50;;;;;;;-142.13;100.00;58370.81;4975079;28;20738;-70
2020/12/17 01:22:08;;;;;;;4.60;2.30;;;;;;;-142.13;100.00;58370.81;4975575;28;20555;-72
2020/12/17 01:24:35;;;;;;;4.60;3.23;;;;;;;-142.13;100.00;58370.81;4975403;28;20542;-70
2020/12/17 01:27:02;;;;;;;8.43;2.90;;;;;;;-142.13;100.00;58370.81;4976519;28;20454;-70
2020/12/17 01:29:29;;;;;;;4.70;3.27;;;;;;;-142.13;100.00;58370.81;4977347;28;20468;-70
2020/12/17 01:32:00;;;;;;;5.23;2.97;;;;;;;-142.13;100.00;58370.81;4977130;28;20870;-73
2020/12/17 01:34:26;;;;;;;4.57;3.17;;;;;;;-142.13;100.00;58370.81;4979123;28;20982;-69
2020/12/17 01:36:54;;;;;;;4.07;2.80;;;;;;;-142.13;100.00;58370.81;4979465;28;20449;-69
2020/12/17 01:39:21;;;;;;;6.03;3.50;;;;;;;-142.13;100.00;58370.81;4978765;28;20893;-71
2020/12/17 01:41:48;;;;;;;5.90;3.33;;;;;;;-142.13;100.00;58370.81;4979923;28;20568;-69
2020/12/17 01:44:16;;;;;;;5.40;3.40;;;;;;;-142.13;100.00;58370.81;4978975;28;20570;-69
2020/12/17 01:46:43;;;;;;;4.80;3.23;;;;;;;-142.13;100.00;58370.81;4979369;28;20632;-70
2020/12/17 01:49:12;;;;;;;4.33;3.17;;;;;;;-142.13;100.00;58370.81;4974391;28;20559;-71
2020/12/17 01:51:41;;;;;;;4.70;3.47;;;;;;;-142.13;100.00;58370.81;4979156;28;20981;-71
2020/12/17 01:54:08;;;;;;;5.20;3.80;;;;;;;-142.13;100.00;58370.81;4978809;28;20496;-71
2020/12/17 01:56:39;;;;;;;6.30;3.70;;;;;;;-142.13;100.00;58370.81;4979392;28;20821;-72
2020/12/17 01:59:12;;;;;;;6.77;3.90;;;;;;;-142.13;100.00;58370.81;4978098;28;20567;-70
2020/12/17 02:01:43;;;;;;;7.23;4.03;;;;;;;-142.13;100.00;58370.81;4978479;28;20539;-69
2020/12/17 02:04:12;;;;;;;8.77;4.23;;;;;;;-142.13;100.00;58370.81;4973805;28;20998;-69
2020/12/17 02:06:38;;;;;;;7.47;4.37;;;;;;;-142.13;100.00;58370.81;4978592;28;20916;-70
2020/12/17 02:09:05;;;;;;;6.67;3.83;;;;;;;-142.13;100.00;58370.81;4978005;28;20551;-69
2020/12/17 02:11:32;;;;;;;7.27;4.40;;;;;;;-142.13;100.00;58370.81;4978756;28;20457;-70
2020/12/17 02:13:59;;;;;;;8.33;4.63;;;;;;;-142.13;100.00;58370.81;4978654;28;20822;-70
2020/12/17 02:16:26;;;;;;;8.70;4.35;;;;;;;-142.13;100.00;58370.81;4978338;28;20951;-70
2020/12/17 02:18:52;;;;;;;9.50;5.27;;;;;;;-142.13;100.00;58370.81;4976904;28;20535;-72
2020/12/17 02:21:21;;;;;;;10.03;6.00;;;;;;;-142.13;100.00;58370.81;4978400;28;20927;-70
2020/12/17 02:23:48;;;;;;;10.03;4.90;;;;;;;-142.13;100.00;58370.81;4977573;28;20495;-73
2020/12/17 02:26:16;;;;;;;9.57;6.10;;;;;;;-142.13;100.00;58370.81;4978862;28;20973;-70
2020/12/17 02:28:43;;;;;;;10.23;5.87;;;;;;;-142.13;100.00;58370.81;4980205;28;20971;-70
2020/12/17 02:31:09;;;;;;;8.33;5.57;;;;;;;-142.13;100.00;58370.81;4973540;28;20919;-71
2020/12/17 02:33:36;;;;;;;11.73;5.75;;;;;;;-142.13;100.00;58370.81;4978047;28;20928;-69
2020/12/17 02:36:03;;;;;;;9.32;4.80;;;;;;;-142.13;100.00;58370.81;4977611;28;20321;-69
2020/12/17 02:38:30;;;;;;;11.67;6.97;;;;;;;-142.13;100.00;58370.81;4978102;28;20725;-69
2020/12/17 02:40:56;;;;;;;11.93;6.00;;;;;;;-142.13;100.00;58370.81;4978318;28;20505;-70
2020/12/17 02:43:24;;;;;;;11.53;6.70;;;;;;;-142.13;100.00;58370.81;4977357;28;20869;-68
2020/12/17 02:45:51;;;;;;;12.00;6.07;;;;;;;-142.13;100.00;58370.81;4978330;28;20567;-70
2020/12/17 02:48:18;;;;;;;17.17;6.65;;;;;;;-142.13;100.00;58370.81;4977372;28;20476;-69
2020/12/17 02:50:45;;;;;;;11.35;6.93;;;;;;;-142.13;100.00;58370.81;4977030;28;20416;-69
2020/12/17 02:53:12;;;;;;;12.38;8.13;;;;;;;-142.13;100.00;58370.81;4977045;28;20887;-70
2020/12/17 02:55:40;;;;;;;12.65;7.75;;;;;;;-142.13;100.00;58370.81;4977640;28;20270;-70
2020/12/17 02:58:07;;;;;;;12.68;7.88;;;;;;;-142.13;100.00;58370.81;4977839;28;20226;-70
2020/12/17 03:00:35;;;;;;;15.65;8.13;;;;;;;-142.13;100.00;58370.81;4977423;28;20698;-69
2020/12/17 03:03:02;;;;;;;13.68;8.82;;;;;;;-142.13;100.00;58370.81;4976915;28;20205;-71
2020/12/17 03:05:29;;;;;;;11.52;6.65;;;;;;;-142.13;100.00;58370.81;4978239;28;20592;-69
2020/12/17 03:08:10;;;;;;;12.98;7.53;;;;;;;-142.13;100.00;58370.81;4977216;28;20638;-69
2020/12/17 03:10:36;;;;;;;15.00;7.88;;;;;;;-142.13;100.00;58370.81;4980237;28;20304;-70
2020/12/17 03:13:03;;;;;;;11.95;6.55;;;;;;;-142.13;100.00;58370.81;4976816;28;20194;-70
2020/12/17 03:15:30;;;;;;;13.50;6.85;;;;;;;-142.13;100.00;58370.81;4977441;28;20245;-71
2020/12/17 03:17:57;;;;;;;13.13;6.05;;;;;;;-142.13;100.00;58370.81;4977634;28;20189;-70
2020/12/17 03:20:24;;;;;;;12.43;6.68;;;;;;;-142.13;100.00;58370.81;4976938;28;20249;-70
2020/12/17 03:22:51;;;;;;;13.13;7.13;;;;;;;-142.13;100.00;58370.81;4976928;28;20226;-73
2020/12/17 03:25:18;;;;;;;9.05;5.78;;;;;;;-142.13;100.00;58370.81;4977013;28;20619;-70
2020/12/17 03:27:45;;;;;;;11.65;6.15;;;;;;;-142.13;100.00;58370.81;4978821;28;20670;-68
2020/12/17 03:30:12;;;;;;;8.00;4.90;;;;;;;-142.13;100.00;58370.81;4976968;28;20261;-67
2020/12/17 03:32:39;;;;;;;9.23;5.95;;;;;;;-142.13;100.00;58370.81;4977027;28;20237;-70
2020/12/17 03:35:06;;;;;;;10.63;6.53;;;;;;;-142.13;100.00;58370.81;4976557;28;20392;-67
2020/12/17 03:37:33;;;;;;;13.52;6.65;;;;;;;-142.13;100.00;58370.81;4976858;28;20208;-67
2020/12/17 03:40:00;;;;;;;11.68;7.47;;;;;;;-142.13;100.00;58370.81;4976683;28;20623;-67
2020/12/17 03:42:27;;;;;;;12.68;6.20;;;;;;;-142.13;100.00;58370.81;4977517;28;20847;-68
2020/12/17 03:44:54;;;;;;;14.77;6.30;;;;;;;-142.13;100.00;58370.81;4976804;28;20287;-68
2020/12/17 03:47:20;;;;;;;13.85;5.88;;;;;;;-142.13;100.00;58370.81;4976881;28;20241;-67
2020/12/17 03:49:47;;;;;;;7.35;4.50;;;;;;;-142.13;100.00;58370.81;4976735;28;20257;-67
2020/12/17 03:52:15;;;;;;;8.32;5.97;;;;;;;-142.13;100.00;58370.81;4976539;28;20193;-68
2020/12/17 03:54:42;;;;;;;9.20;5.15;;;;;;;-142.13;100.00;58370.81;4975811;28;20245;-69
2020/12/17 03:57:09;;;;;;;12.35;6.10;;;;;;;-142.13;100.00;58370.81;4977175;28;20623;-68
2020/12/17 03:59:35;;;;;;;10.68;5.55;;;;;;;-142.13;100.00;58370.81;4977530;28;20728;-67
2020/12/17 04:02:02;;;;;;;8.23;5.32;;;;;;;-142.13;100.00;58370.81;4976950;28;20621;-67
2020/12/17 04:04:29;;;;;;;7.28;5.00;;;;;;;-142.13;100.00;58370.81;4976472;28;20587;-71
2020/12/17 04:06:56;;;;;;;8.32;4.80;;;;;;;-142.13;100.00;58370.81;4976801;28;20231;-69
2020/12/17 04:09:23;;;;;;;8.77;5.40;;;;;;;-142.13;100.00;58370.81;4975967;28;20272;-69
2020/12/17 04:11:50;;;;;;;7.43;4.97;;;;;;;-142.13;100.00;58370.81;4976396;28;20628;-68
2020/12/17 04:14:18;;;;;;;12.50;6.85;;;;;;;-142.13;100.00;58370.81;4976560;28;20232;-70
2020/12/17 04:17:03;;;;;;;10.95;5.25;;;;;;;-142.13;100.00;58370.81;4976802;28;20595;-70
2020/12/17 04:19:30;;;;;;;8.40;4.88;;;;;;;-142.13;100.00;58370.81;4975911;28;20688;-70
2020/12/17 04:21:57;;;;;;;6.53;4.18;;;;;;;-142.13;100.00;58370.81;4976032;28;20867;-69
2020/12/17 04:24:24;;;;;;;8.45;3.80;;;;;;;-142.13;100.00;58370.81;4975731;28;20805;-72
2020/12/17 04:27:09;;;;;;;6.90;4.65;;;;;;;-142.13;100.00;58370.81;4973769;28;20701;-70
2020/12/17 04:29:36;;;;;;;10.30;4.10;;;;;;;-142.13;100.00;58370.81;4977212;28;20596;-70
2020/12/17 04:32:03;;;;;;;6.10;3.83;;;;;;;-142.13;100.00;58370.81;4976382;28;21005;-72
2020/12/17 04:34:30;;;;;;;10.88;4.43;;;;;;;-142.13;100.00;58370.81;4975962;28;21218;-71
2020/12/17 04:36:58;;;;;;;4.53;3.28;;;;;;;-142.13;100.00;58370.81;4976727;28;20420;-71
2020/12/17 04:39:26;;;;;;;5.85;3.05;;;;;;;-142.13;100.00;58370.81;4976458;28;20310;-69
2020/12/17 04:41:53;;;;;;;4.37;3.00;;;;;;;-142.13;100.00;58370.81;4974532;28;20252;-71
2020/12/17 04:44:20;;;;;;;5.55;3.33;;;;;;;-142.13;100.00;58370.81;4975508;28;20492;-70
2020/12/17 04:46:54;;;;;;;5.33;3.37;;;;;;;-142.13;100.00;58370.81;4977151;28;20276;-70
2020/12/17 04:49:25;;;;;;;4.53;3.22;;;;;;;-142.13;100.00;58370.81;4975812;28;20522;-70
2020/12/17 04:51:56;;;;;;;7.43;3.50;;;;;;;-142.13;100.00;58370.81;4974817;28;20570;-73
2020/12/17 04:54:24;;;;;;;7.57;4.50;;;;;;;-142.13;100.00;58370.81;4972829;28;20258;-71
2020/12/17 04:56:58;;;;;;;8.18;5.10;;;;;;;-142.13;100.00;58370.81;4976741;28;20695;-70
2020/12/17 04:59:38;;;;;;;9.50;5.82;;;;;;;-142.13;100.00;58370.81;4975749;28;20616;-71
2020/12/17 05:02:06;;;;;;;8.50;5.35;;;;;;;-142.13;100.00;58370.81;4975182;28;20217;-70
2020/12/17 05:04:36;;;;;;;9.13;4.85;;;;;;;-142.13;100.00;58370.81;4975468;28;20317;-70
2020/12/17 05:07:05;;;;;;;8.13;4.57;;;;;;;-142.13;100.00;58370.81;4978165;28;20193;-70
2020/12/17 05:09:37;;;;;;;7.97;4.63;;;;;;;-142.13;100.00;58370.81;4979494;28;20233;-69
2020/12/17 05:12:05;;;;;;;7.40;4.00;;;;;;;-142.13;100.00;58370.81;4974971;28;20645;-71
2020/12/17 05:14:32;;;;;;;8.20;4.50;;;;;;;-142.13;100.00;58370.81;4979610;28;20715;-69
2020/12/17 05:16:59;;;;;;;5.03;3.38;;;;;;;-142.13;100.00;58370.81;4979780;28;20239;-69
2020/12/17 05:19:27;;;;;;;6.55;4.07;;;;;;;-142.13;100.00;58370.81;4979020;28;20777;-71
2020/12/17 05:21:56;;;;;;;6.97;4.07;;;;;;;-142.13;100.00;58370.81;4977831;28;20720;-70
2020/12/17 05:24:24;;;;;;;6.30;3.58;;;;;;;-142.13;100.00;58370.81;4975904;28;20606;-69
2020/12/17 05:26:51;;;;;;;5.85;3.55;;;;;;;-142.13;100.00;58370.81;4979318;28;20849;-69
2020/12/17 05:29:19;;;;;;;4.95;3.60;;;;;;;-142.13;100.00;58370.81;4981669;28;20341;-72
2020/12/17 05:31:47;;;;;;;5.28;3.13;;;;;;;-142.13;100.00;58370.81;4979647;28;20280;-69
2020/12/17 05:34:15;;;;;;;5.88;3.60;;;;;;;-142.13;100.00;58370.81;4979166;28;20237;-70
2020/12/17 05:36:44;;;;;;;5.50;3.75;;;;;;;-142.13;100.00;58370.81;4979749;28;20220;-69
2020/12/17 05:39:12;;;;;;;10.38;4.30;;;;;;;-142.13;100.00;58370.81;4974938;28;20272;-69
2020/12/17 05:41:41;;;;;;;6.10;3.70;;;;;;;-142.13;100.00;58370.81;4979184;28;20234;-69
2020/12/17 05:44:09;;;;;;;6.88;3.95;;;;;;;-142.13;100.00;58370.81;4978408;28;20748;-69
2020/12/17 05:46:38;;;;;;;8.73;4.78;;;;;;;-142.13;100.00;58370.81;4979001;28;20218;-69
2020/12/17 05:49:13;;;;;;;7.57;4.22;;;;;;;-142.13;100.00;58370.81;4978565;28;20681;-69
2020/12/17 05:51:40;;;;;;;13.63;4.60;;;;;;;-142.13;100.00;58370.81;4978993;28;20672;-69
2020/12/17 05:54:11;;;;;;;6.25;4.35;;;;;;;-142.13;100.00;58370.81;4982941;28;20245;-69
2020/12/17 05:56:38;;;;;;;7.28;4.00;;;;;;;-142.13;100.00;58370.81;4979216;28;20628;-69
2020/12/17 05:59:05;;;;;;;7.65;4.47;;;;;;;-142.13;100.00;58370.81;4977924;28;20770;-69
2020/12/17 06:01:33;;;;;;;7.47;3.65;;;;;;;-142.13;100.00;58370.81;4978760;28;20197;-69
2020/12/17 06:04:13;;;;;;;7.80;4.22;;;;;;;-142.13;100.00;58370.81;4979013;28;20324;-70
2020/12/17 06:06:44;;;;;;;5.00;3.30;;;;;;;-142.13;100.00;58370.81;4979032;28;20819;-69
2020/12/17 06:09:23;;;;;;;6.35;3.88;;;;;;;-142.13;100.00;58370.81;4974750;28;20559;-70
2020/12/17 06:11:50;;;;;;;7.22;4.13;;;;;;;-142.13;100.00;58370.81;4978063;28;20628;-69
2020/12/17 06:14:21;;;;;;;5.07;3.38;;;;;;;-142.13;100.00;58370.81;4978756;28;20300;-69
2020/12/17 06:16:53;;;;;;;6.55;3.58;;;;;;;-142.13;100.00;58370.81;4978193;28;20288;-70
2020/12/17 06:19:24;;;;;;;7.97;4.18;;;;;;;-142.13;100.00;58370.81;4976647;28;20312;-69
2020/12/17 06:21:51;;;;;;;5.97;3.63;;;;;;;-142.13;100.00;58370.81;4978264;28;20233;-69
2020/12/17 06:24:19;;;;;;;7.38;4.03;;;;;;;-142.13;100.00;58370.81;4977528;28;20747;-70
2020/12/17 06:26:51;;;;;;;6.75;3.92;;;;;;;-142.13;100.00;58370.81;4976411;28;20296;-70
2020/12/17 06:29:20;;;;;;;7.70;4.65;;;;;;;-142.13;100.00;58370.81;4980817;28;20226;-69
2020/12/17 06:31:56;;;;;;;15.00;4.07;;;;;;;-142.13;100.00;58370.81;4977798;28;20625;-68
2020/12/17 06:34:29;;;;;;;4.97;3.40;;;;;;;-142.13;100.00;58370.81;4978034;28;20850;-71
2020/12/17 06:36:58;;;;;;;6.70;4.00;;;;;;;-142.13;100.00;58370.81;4978037;28;20589;-70
2020/12/17 06:39:25;;;;;;;5.18;3.42;;;;;;;-142.13;100.00;58370.81;4977679;28;20609;-70
2020/12/17 06:41:52;;;;;;;6.07;3.65;;;;;;;-142.13;100.00;58370.81;4978481;28;20319;-69
2020/12/17 06:44:26;;;;;;;4.72;3.40;;;;;;;-142.13;100.00;58370.81;4980223;28;20299;-69
2020/12/17 06:46:54;;;;;;;6.07;3.78;;;;;;;-142.13;100.00;58370.81;4977468;28;20639;-68
2020/12/17 06:49:26;;;;;;;5.30;3.00;;;;;;;-142.13;100.00;58370.81;4977430;28;20280;-69
2020/12/17 06:52:04;;;;;;;3.42;2.85;;;;;;;-142.13;100.00;58370.81;4977105;28;20275;-69
2020/12/17 06:54:39;;;;;;;6.50;3.92;;;;;;;-142.13;100.00;58370.81;4977405;28;20217;-68
2020/12/17 06:57:08;;;;;;;6.40;3.90;;;;;;;-142.13;100.00;58370.81;4977082;28;20237;-68
2020/12/17 06:59:36;;;;;;;7.55;4.72;;;;;;;-142.13;100.00;58370.81;4977313;28;20257;-68
2020/12/17 07:02:05;;;;;;;8.50;4.68;;;;;;;-142.13;100.00;58370.81;4976676;28;20601;-68
2020/12/17 07:04:40;;;;;;;10.85;5.75;;;;;;;-142.13;100.00;58370.81;4977009;28;20292;-69
2020/12/17 07:07:16;;;;;;;12.23;5.53;;;;;;;-142.13;100.00;58370.81;4977617;28;20567;-68
2020/12/17 07:09:45;;;;;;;8.48;3.70;;;;;;;-142.13;100.00;58370.81;4977094;28;20229;-68
2020/12/17 07:12:13;;;;;;;6.03;3.03;;;;;;;-142.13;100.00;58370.81;4973064;28;20202;-69
2020/12/17 07:14:41;;;;;;;2.80;2.20;;;;;;;-142.13;100.00;58370.81;4976546;28;20233;-69
2020/12/17 07:17:09;;;;;;;4.72;1.85;;;;;;;-142.13;100.00;58370.81;4977974;28;20214;-68
2020/12/17 07:19:41;;;;;;;3.30;2.40;;;;;;;-142.13;100.00;58370.81;4977076;28;20731;-69
2020/12/17 07:22:11;;;;;;;3.05;1.95;;;;;;;-142.13;100.00;58370.81;4977045;28;20317;-68
2020/12/17 07:24:40;;;;;;;4.78;2.55;;;;;;;-142.13;100.00;58370.81;4976759;28;20911;-69
2020/12/17 07:27:12;;;;;;;8.13;2.70;;;;;;;-142.13;100.00;58370.81;4978350;28;20747;-70
2020/12/17 07:29:42;;;;;;;5.38;2.97;;;;;;;-142.13;100.00;58370.81;4977421;28;20618;-68
2020/12/17 07:32:32;;;;;;;5.85;3.40;;;;;;;-142.13;100.00;58370.81;4978002;28;20248;-69
2020/12/17 07:35:18;;;;;;;3.05;2.22;;;;;;;-142.13;100.00;58370.81;4976684;28;20686;-68
2020/12/17 07:37:46;;;;;;;3.45;1.77;;;;;;;-142.13;100.00;58370.81;4977066;28;20636;-71
2020/12/17 07:40:20;;;;;;;4.53;2.30;;;;;;;-142.13;100.00;58370.81;4973124;28;20271;-68
2020/12/17 07:43:02;;;;;;;3.15;2.15;;;;;;;-142.13;100.00;58370.81;4976069;28;20762;-68
2020/12/17 07:45:48;;;;;;;4.05;2.58;;;;;;;-142.13;100.00;58370.81;4977270;28;20209;-69
2020/12/17 07:48:38;;;;;;;5.28;2.75;;;;;;;-142.13;100.00;58370.81;4972351;28;20648;-69
2020/12/17 07:51:08;;;;;;;5.63;2.20;;;;;;;-142.13;100.00;58370.81;4977019;28;20497;-69
2020/12/17 07:53:36;;;;;;;3.65;2.10;;;;;;;-142.13;100.00;58370.81;4976732;28;20229;-69
2020/12/17 07:56:04;;;;;;;2.25;1.85;;;;;;;-142.13;100.00;58370.81;4974697;28;20253;-69
2020/12/17 07:58:31;;;;;;;5.80;2.30;;;;;;;-142.13;100.00;58370.81;4976695;28;20538;-68
2020/12/17 08:00:58;;;;;;;2.40;1.55;;;;;;;-142.13;100.00;58370.81;4976890;28;21017;-68
2020/12/17 08:03:26;;;;;;;2.72;1.50;;;;;;;-142.13;100.00;58370.81;4976996;28;20324;-68
2020/12/17 08:06:03;;;;;;;3.43;1.70;;;;;;;-142.13;100.00;58370.81;4976300;28;20198;-68
2020/12/17 08:08:30;;;;;;;4.70;2.60;;;;;;;-142.13;100.00;58370.81;4976985;28;20546;-70
2020/12/17 08:10:58;;;;;;;3.23;1.80;;;;;;;-142.13;100.00;58370.81;4977617;28;20460;-69
2020/12/17 08:13:26;;;;;;;3.00;1.93;;;;;;;-142.13;100.00;58370.81;4976915;28;20492;-70
2020/12/17 08:15:54;;;;;;;1.73;1.63;;;;;;;-142.13;100.00;58370.81;4976121;28;20512;-69
2020/12/17 08:18:24;;;;;;;6.28;1.50;;;;;;;-142.13;100.00;58370.81;4976215;28;20537;-69
2020/12/17 08:21:06;;;;;;;5.82;1.83;;;;;;;-142.13;100.00;58370.81;4976705;28;20263;-70
2020/12/17 08:23:35;;;;;;;7.07;2.10;;;;;;;-142.13;100.00;58370.81;4975721;28;20252;-69
2020/12/17 08:26:03;;;;;;;4.27;2.07;;;;;;;-142.13;100.00;58370.81;4977475;28;20480;-68
2020/12/17 08:28:31;;;;;;;4.30;2.30;;;;;;;-142.13;100.00;58370.81;4978562;28;20959;-69
2020/12/17 08:31:08;;;;;;;3.13;2.00;;;;;;;-142.13;100.00;58370.81;4976769;28;21115;-72
2020/12/17 08:33:36;;;;;;;3.97;2.03;;;;;;;-142.13;100.00;58370.81;4976271;28;20464;-68
2020/12/17 08:36:05;;;;;;;3.20;2.20;;;;;;;-142.13;100.00;58370.81;4976174;28;20558;-69
2020/12/17 08:38:34;;;;;;;4.80;2.33;;;;;;;-142.13;100.00;58370.81;4975673;28;20467;-69
2020/12/17 08:41:03;;;;;;;2.00;1.57;;;;;;;-142.13;100.00;58370.81;4976858;28;20928;-71
2020/12/17 08:43:42;;;;;;;2.77;1.50;;;;;;;-142.13;100.00;58370.81;4980271;28;20471;-70
2020/12/17 08:46:15;;;;;;;2.80;1.83;;;;;;;-142.13;100.00;58370.81;4980146;28;20578;-69
2020/12/17 08:48:43;;;;;;;3.60;2.00;;;;;;;-142.13;100.00;58370.81;4980624;28;20917;-69
2020/12/17 08:51:11;;;;;;;10.03;2.10;;;;;;;-142.13;100.00;58370.81;4975862;28;20939;-70
2020/12/17 08:53:42;;;;;;;4.07;2.40;;;;;;;-142.13;100.00;58370.81;4980252;28;20468;-69
2020/12/17 08:56:12;;;;;;;3.83;2.07;;;;;;;-142.13;100.00;58370.81;4978081;28;21036;-68
2020/12/17 08:58:51;;;;;;;3.43;1.90;;;;;;;-142.13;100.00;58370.81;4980172;28;20499;-69
2020/12/17 09:01:23;;;;;;;3.10;1.60;;;;;;;-142.13;100.00;58370.81;4976108;28;20755;-69
2020/12/17 09:03:51;;;;;;;5.00;1.97;;;;;;;-142.13;100.00;58370.81;4979285;28;20558;-69
2020/12/17 09:06:23;;;;;;;4.70;1.83;;;;;;;-142.13;100.00;58370.81;4980736;28;20971;-69
2020/12/17 09:08:52;;;;;;;6.73;2.70;;;;;;;-142.13;100.00;58370.81;4980129;28;20955;-73
2020/12/17 09:11:30;;;;;;;3.60;2.10;;;;;;;-142.13;100.00;58370.81;4979714;28;20876;-68
2020/12/17 09:14:01;;;;;;;11.23;3.67;;;;;;;-142.13;100.00;58370.81;4978280;28;21170;-69
2020/12/17 09:16:29;;;;;;;4.30;2.57;;;;;;;-142.13;100.00;58370.81;4980438;28;20955;-70
2020/12/17 09:18:57;;;;;;;4.37;1.90;;;;;;;-142.13;100.00;58370.81;4979368;28;20754;-69
2020/12/17 09:21:24;;;;;;;7.30;2.57;;;;;;;-142.13;100.00;58370.81;4980128;28;20502;-69
2020/12/17 09:23:56;;;;;;;2.83;1.90;;;;;;;-142.13;100.00;58370.81;4978618;28;20522;-68
2020/12/17 09:26:23;;;;;;;3.73;2.20;;;;;;;-142.13;100.00;58370.81;4980390;28;20857;-68
2020/12/17 09:28:52;;;;;;;9.13;2.73;;;;;;;-142.13;100.00;58370.81;4982175;28;20549;-68
2020/12/17 09:31:23;;;;;;;4.40;1.63;;;;;;;-142.13;100.00;58370.81;4979898;28;20811;-68
2020/12/17 09:34:00;;;;;;;2.97;2.00;;;;;;;-142.13;100.00;58370.81;4978312;28;20798;-69
2020/12/17 09:36:27;;;;;;;5.13;1.70;;;;;;;-142.13;100.00;58370.81;4979753;28;20978;-70
2020/12/17 09:39:00;;;;;;;2.40;1.30;;;;;;;-142.13;100.00;58370.81;4977803;28;20478;-68
2020/12/17 09:41:27;;;;;;;3.20;1.77;;;;;;;-142.13;100.00;58370.81;4979257;28;20539;-68
2020/12/17 09:43:54;;;;;;;5.90;2.30;;;;;;;-142.13;100.00;58370.81;4977477;28;20982;-70
2020/12/17 09:46:21;;;;;;;2.27;1.53;;;;;;;-142.13;100.00;58370.81;4979019;28;20502;-68
2020/12/17 09:48:48;;;;;;;2.93;1.80;;;;;;;-142.13;100.00;58370.81;4978395;28;20951;-68
2020/12/17 09:51:21;;;;;;;3.30;2.03;;;;;;;-142.13;100.00;58370.81;4979031;28;20973;-68
2020/12/17 09:54:00;;;;;;;2.77;1.70;;;;;;;-142.13;100.00;58370.81;4977293;28;20533;-68
2020/12/17 09:56:29;;;;;;;2.07;1.50;;;;;;;-142.13;100.00;58370.81;4977650;28;20530;-67
2020/12/17 09:58:56;;;;;;;4.93;2.03;;;;;;;-142.13;100.00;58370.81;4977807;28;20479;-67
2020/12/17 10:01:24;;;;;;;2.37;1.30;;;;;;;-142.13;100.00;58370.81;4978972;28;21001;-69
2020/12/17 10:03:50;;;;;;;3.73;2.10;;;;;;;-142.13;100.00;58370.81;4978188;28;20927;-68
2020/12/17 10:06:17;;;;;;;2.47;1.87;;;;;;;-142.13;100.00;58370.81;4979105;28;20453;-68
2020/12/17 10:08:44;;;;;;;3.20;1.47;;;;;;;-142.13;100.00;58370.81;4978529;28;20575;-70
2020/12/17 10:11:12;;;;;;;3.03;1.70;;;;;;;-142.13;100.00;58370.81;4975165;28;20460;-70
2020/12/17 10:13:40;;;;;;;10.73;5.23;;;;;;;-142.13;100.00;58370.81;4977641;28;20526;-69
2020/12/17 10:16:07;;;;;;;4.33;2.30;;;;;;;-142.13;100.00;58370.81;4978130;28;21053;-68
2020/12/17 10:18:34;;;;;;;4.67;2.07;;;;;;;-142.13;100.00;58370.81;4978391;28;20856;-68
2020/12/17 10:21:01;;;;;;;2.00;1.53;;;;;;;-142.13;100.00;58370.81;4978596;28;20445;-69
2020/12/17 10:23:27;;;;;;;4.23;2.00;;;;;;;-142.13;100.00;58370.81;4977807;28;20463;-68
2020/12/17 10:25:55;;;;;;;2.43;1.67;;;;;;;-142.13;100.00;58370.81;4978755;28;20910;-68
2020/12/17 10:28:21;;;;;;;3.53;2.00;;;;;;;-142.13;100.00;58370.81;4980278;28;21047;-68
2020/12/17 10:30:49;;;;;;;3.20;1.83;;;;;;;-142.13;100.00;58370.81;4979131;28;20484;-68
2020/12/17 10:33:16;;;;;;;5.50;2.30;;;;;;;-142.13;100.00;58370.81;4977558;28;20943;-67
2020/12/17 10:35:42;;;;;;;6.00;2.03;;;;;;;-142.13;100.00;58370.81;4979442;28;20990;-67
2020/12/17 10:38:10;;;;;;;4.83;2.80;;;;;;;-142.13;100.00;58370.81;4978085;28;20484;-67
2020/12/17 10:40:36;;;;;;;3.70;2.17;;;;;;;-142.13;100.00;58370.81;4978268;28;20485;-70
2020/12/17 10:43:03;;;;;;;5.50;2.47;;;;;;;-142.13;100.00;58370.81;4977703;28;20531;-71
2020/12/17 10:45:30;;;;;;;4.30;2.20;;;;;;;-142.13;100.00;58370.81;4978418;28;20528;-69
2020/12/17 10:47:58;;;;;;;5.20;2.20;;;;;;;-142.13;100.00;58370.81;4979048;28;20927;-69
2020/12/17 10:50:24;;;;;;;3.27;1.90;;;;;;;-142.13;100.00;58370.81;4978432;28;20568;-69
2020/12/17 10:52:51;;;;;;;5.43;1.83;;;;;;;-142.13;100.00;58370.81;4978363;28;20838;-70
2020/12/17 10:55:18;;;;;;;9.13;2.20;;;;;;;-142.13;100.00;58370.81;4977635;28;20963;-69
2020/12/17 10:57:45;;;;;;;4.40;2.10;;;;;;;-142.13;100.00;58370.81;4978571;28;20469;-71
2020/12/17 11:00:12;;;;;;;3.30;2.00;;;;;;;-142.13;100.00;58370.81;4973877;28;21029;-73
2020/12/17 11:02:43;;;;;;;5.90;2.70;;;;;;;-142.13;100.00;58370.81;4978926;28;20874;-71
2020/12/17 11:05:12;;;;;;;13.30;5.00;;;;;;;-142.13;100.00;58370.81;4973099;28;20854;-71
2020/12/17 11:07:38;;;;;;;9.00;4.07;;;;;;;-142.13;100.00;58370.81;4978899;28;20452;-74
2020/12/17 11:10:05;;;;;;;6.23;3.50;;;;;;;-142.13;100.00;58370.81;4976922;28;21000;-71
2020/12/17 11:12:33;;;;;;;7.87;2.80;;;;;;;-142.13;100.00;58370.81;4979671;28;20972;-71
2020/12/17 11:15:00;;;;;;;5.40;2.70;;;;;;;-142.13;100.00;58370.81;4978242;28;20578;-71